sensor_id;sensor_type;location;lat;lon;timestamp;temperature;humidity
19920;DHT22;10122;50.074;19.920;2022-08-03T00:01:06;20.40;99.90
19920;DHT22;10122;50.074;19.920;2022-08-03T00:03:32;20.40;99.90
19920;DHT22;10122;50.074;19.920;2022-08-03T00:05:57;20.40;99.90
19920;DHT22;10122;50.074;19.920;2022-08-03T00:08:23;20.30;99.90
19920;DHT22;10122;50.074;19.920;2022-08-03T00:10:49;20.30;99.90
19920;DHT22;10122;50.074;19.920;2022-08-03T00:13:15;20.30;99.90
19920;DHT22;10122;50.074;19.920;2022-08-03T00:15:41;20.30;99.90
19920;DHT22;10122;50.074;19.920;2022-08-03T00:18:08;20.30;99.90
19920;DHT22;10122;50.074;19.920;2022-08-03T00:20:34;20.20;99.90
19920;DHT22;10122;50.074;19.920;2022-08-03T00:23:00;20.10;99.90
19920;DHT22;10122;50.074;19.920;2022-08-03T00:25:26;20.10;99.90
19920;DHT22;10122;50.074;19.920;2022-08-03T00:27:51;20.00;99.90
19920;DHT22;10122;50.074;19.920;2022-08-03T00:30:17;20.00;99.90
19920;DHT22;10122;50.074;19.920;2022-08-03T00:32:43;20.00;99.90
19920;DHT22;10122;50.074;19.920;2022-08-03T00:35:08;20.00;99.90
19920;DHT22;10122;50.074;19.920;2022-08-03T00:37:34;20.00;99.90
19920;DHT22;10122;50.074;19.920;2022-08-03T00:40:00;20.00;99.90
19920;DHT22;10122;50.074;19.920;2022-08-03T00:42:25;20.00;99.90
19920;DHT22;10122;50.074;19.920;2022-08-03T00:44:51;20.00;99.90
19920;DHT22;10122;50.074;19.920;2022-08-03T00:47:17;19.90;99.90
19920;DHT22;10122;50.074;19.920;2022-08-03T00:49:42;19.90;99.90
19920;DHT22;10122;50.074;19.920;2022-08-03T00:52:09;19.90;99.90
19920;DHT22;10122;50.074;19.920;2022-08-03T00:54:37;19.90;99.90
19920;DHT22;10122;50.074;19.920;2022-08-03T00:57:03;19.90;99.90
19920;DHT22;10122;50.074;19.920;2022-08-03T00:59:30;19.90;99.90
19920;DHT22;10122;50.074;19.920;2022-08-03T01:01:56;19.80;99.90
19920;DHT22;10122;50.074;19.920;2022-08-03T01:04:23;19.80;99.90
19920;DHT22;10122;50.074;19.920;2022-08-03T01:09:45;19.80;99.90
19920;DHT22;10122;50.074;19.920;2022-08-03T01:18:02;19.70;99.90
19920;DHT22;10122;50.074;19.920;2022-08-03T01:20:32;19.70;99.90
19920;DHT22;10122;50.074;19.920;2022-08-03T01:23:00;19.70;99.90
19920;DHT22;10122;50.074;19.920;2022-08-03T01:31:07;19.60;99.90
19920;DHT22;10122;50.074;19.920;2022-08-03T01:33:38;19.60;99.90
19920;DHT22;10122;50.074;19.920;2022-08-03T01:36:25;19.60;99.90
19920;DHT22;10122;50.074;19.920;2022-08-03T01:38:57;19.50;99.90
19920;DHT22;10122;50.074;19.920;2022-08-03T01:41:31;19.40;99.90
19920;DHT22;10122;50.074;19.920;2022-08-03T01:43:59;19.40;99.90
19920;DHT22;10122;50.074;19.920;2022-08-03T01:46:27;19.30;99.90
19920;DHT22;10122;50.074;19.920;2022-08-03T01:48:54;19.30;99.90
19920;DHT22;10122;50.074;19.920;2022-08-03T01:51:22;19.30;99.90
19920;DHT22;10122;50.074;19.920;2022-08-03T01:53:49;19.30;99.90
19920;DHT22;10122;50.074;19.920;2022-08-03T01:56:17;19.20;99.90
19920;DHT22;10122;50.074;19.920;2022-08-03T01:58:45;19.20;99.90
19920;DHT22;10122;50.074;19.920;2022-08-03T02:01:12;19.20;99.90
19920;DHT22;10122;50.074;19.920;2022-08-03T02:03:43;19.20;99.90
19920;DHT22;10122;50.074;19.920;2022-08-03T02:06:10;19.20;99.90
19920;DHT22;10122;50.074;19.920;2022-08-03T02:08:38;19.20;99.90
19920;DHT22;10122;50.074;19.920;2022-08-03T02:11:05;19.10;99.90
19920;DHT22;10122;50.074;19.920;2022-08-03T02:13:33;19.10;99.90
19920;DHT22;10122;50.074;19.920;2022-08-03T02:16:00;19.10;99.90
19920;DHT22;10122;50.074;19.920;2022-08-03T02:18:28;19.10;99.90
19920;DHT22;10122;50.074;19.920;2022-08-03T02:20:55;19.10;99.90
19920;DHT22;10122;50.074;19.920;2022-08-03T02:23:21;19.10;99.90
19920;DHT22;10122;50.074;19.920;2022-08-03T02:25:54;19.00;99.90
19920;DHT22;10122;50.074;19.920;2022-08-03T02:28:28;19.00;99.90
19920;DHT22;10122;50.074;19.920;2022-08-03T02:30:55;19.00;99.90
19920;DHT22;10122;50.074;19.920;2022-08-03T02:33:42;18.90;99.90
19920;DHT22;10122;50.074;19.920;2022-08-03T02:36:10;18.90;99.90
19920;DHT22;10122;50.074;19.920;2022-08-03T02:38:39;18.90;99.90
19920;DHT22;10122;50.074;19.920;2022-08-03T02:41:14;18.90;99.90
19920;DHT22;10122;50.074;19.920;2022-08-03T02:43:42;18.80;99.90
19920;DHT22;10122;50.074;19.920;2022-08-03T02:46:11;18.80;99.90
19920;DHT22;10122;50.074;19.920;2022-08-03T02:48:40;18.80;99.90
19920;DHT22;10122;50.074;19.920;2022-08-03T02:51:06;18.80;99.90
19920;DHT22;10122;50.074;19.920;2022-08-03T02:53:33;18.80;99.90
19920;DHT22;10122;50.074;19.920;2022-08-03T02:55:59;18.80;99.90
19920;DHT22;10122;50.074;19.920;2022-08-03T02:58:28;18.80;99.90
19920;DHT22;10122;50.074;19.920;2022-08-03T03:00:55;18.80;99.90
19920;DHT22;10122;50.074;19.920;2022-08-03T03:03:22;18.80;99.90
19920;DHT22;10122;50.074;19.920;2022-08-03T03:05:49;18.80;99.90
19920;DHT22;10122;50.074;19.920;2022-08-03T03:08:17;18.80;99.90
19920;DHT22;10122;50.074;19.920;2022-08-03T03:10:44;18.70;99.90
19920;DHT22;10122;50.074;19.920;2022-08-03T03:13:11;18.70;99.90
19920;DHT22;10122;50.074;19.920;2022-08-03T03:15:38;18.60;99.90
19920;DHT22;10122;50.074;19.920;2022-08-03T03:18:06;18.70;99.90
19920;DHT22;10122;50.074;19.920;2022-08-03T03:20:32;18.70;99.90
19920;DHT22;10122;50.074;19.920;2022-08-03T03:23:00;18.70;99.90
19920;DHT22;10122;50.074;19.920;2022-08-03T03:25:31;18.70;99.90
19920;DHT22;10122;50.074;19.920;2022-08-03T03:28:00;18.70;99.90
19920;DHT22;10122;50.074;19.920;2022-08-03T03:30:26;18.70;99.90
19920;DHT22;10122;50.074;19.920;2022-08-03T03:32:53;18.70;99.90
19920;DHT22;10122;50.074;19.920;2022-08-03T03:35:19;18.70;99.90
19920;DHT22;10122;50.074;19.920;2022-08-03T03:37:45;18.70;99.90
19920;DHT22;10122;50.074;19.920;2022-08-03T03:40:11;18.70;99.90
19920;DHT22;10122;50.074;19.920;2022-08-03T03:42:38;18.70;99.90
19920;DHT22;10122;50.074;19.920;2022-08-03T03:45:06;18.70;99.90
19920;DHT22;10122;50.074;19.920;2022-08-03T03:47:33;18.70;99.90
19920;DHT22;10122;50.074;19.920;2022-08-03T03:50:01;18.70;99.90
19920;DHT22;10122;50.074;19.920;2022-08-03T03:52:27;18.70;99.90
19920;DHT22;10122;50.074;19.920;2022-08-03T03:54:53;18.70;99.90
19920;DHT22;10122;50.074;19.920;2022-08-03T03:57:18;18.70;99.90
19920;DHT22;10122;50.074;19.920;2022-08-03T03:59:44;18.70;99.90
19920;DHT22;10122;50.074;19.920;2022-08-03T04:02:10;18.70;99.90
19920;DHT22;10122;50.074;19.920;2022-08-03T04:04:37;18.70;99.90
19920;DHT22;10122;50.074;19.920;2022-08-03T04:07:24;18.80;99.90
19920;DHT22;10122;50.074;19.920;2022-08-03T04:10:20;18.80;99.90
19920;DHT22;10122;50.074;19.920;2022-08-03T04:13:08;18.80;99.90
19920;DHT22;10122;50.074;19.920;2022-08-03T04:15:37;18.70;99.90
19920;DHT22;10122;50.074;19.920;2022-08-03T04:18:07;18.70;99.90
19920;DHT22;10122;50.074;19.920;2022-08-03T04:20:36;18.70;99.90
19920;DHT22;10122;50.074;19.920;2022-08-03T04:23:03;18.70;99.90
19920;DHT22;10122;50.074;19.920;2022-08-03T04:25:32;18.70;99.90
19920;DHT22;10122;50.074;19.920;2022-08-03T04:27:59;18.70;99.90
19920;DHT22;10122;50.074;19.920;2022-08-03T04:30:30;18.80;99.90
19920;DHT22;10122;50.074;19.920;2022-08-03T04:32:58;18.80;99.90
19920;DHT22;10122;50.074;19.920;2022-08-03T04:35:30;18.90;99.90
19920;DHT22;10122;50.074;19.920;2022-08-03T04:38:01;19.00;99.90
19920;DHT22;10122;50.074;19.920;2022-08-03T04:40:32;19.00;99.90
19920;DHT22;10122;50.074;19.920;2022-08-03T04:42:58;19.10;99.90
19920;DHT22;10122;50.074;19.920;2022-08-03T04:45:26;19.20;99.90
19920;DHT22;10122;50.074;19.920;2022-08-03T04:47:53;19.10;99.90
19920;DHT22;10122;50.074;19.920;2022-08-03T04:50:20;19.10;99.90
19920;DHT22;10122;50.074;19.920;2022-08-03T04:52:46;19.20;99.90
19920;DHT22;10122;50.074;19.920;2022-08-03T04:55:33;19.20;99.90
19920;DHT22;10122;50.074;19.920;2022-08-03T04:58:00;19.20;99.90
19920;DHT22;10122;50.074;19.920;2022-08-03T05:00:26;19.30;99.90
19920;DHT22;10122;50.074;19.920;2022-08-03T05:02:53;19.30;99.90
19920;DHT22;10122;50.074;19.920;2022-08-03T05:05:20;19.40;99.90
19920;DHT22;10122;50.074;19.920;2022-08-03T05:07:46;19.50;99.90
19920;DHT22;10122;50.074;19.920;2022-08-03T05:10:12;19.60;99.90
19920;DHT22;10122;50.074;19.920;2022-08-03T05:12:39;19.60;99.90
19920;DHT22;10122;50.074;19.920;2022-08-03T05:15:05;19.70;99.90
19920;DHT22;10122;50.074;19.920;2022-08-03T05:17:31;19.70;99.90
19920;DHT22;10122;50.074;19.920;2022-08-03T05:19:59;19.80;99.90
19920;DHT22;10122;50.074;19.920;2022-08-03T05:22:25;19.90;99.90
19920;DHT22;10122;50.074;19.920;2022-08-03T05:24:51;20.00;99.90
19920;DHT22;10122;50.074;19.920;2022-08-03T05:27:17;20.00;99.90
19920;DHT22;10122;50.074;19.920;2022-08-03T05:29:49;20.10;99.90
19920;DHT22;10122;50.074;19.920;2022-08-03T05:32:16;20.20;99.90
19920;DHT22;10122;50.074;19.920;2022-08-03T05:34:42;20.20;99.90
19920;DHT22;10122;50.074;19.920;2022-08-03T05:37:08;20.40;99.90
19920;DHT22;10122;50.074;19.920;2022-08-03T05:39:35;20.50;99.90
19920;DHT22;10122;50.074;19.920;2022-08-03T05:42:00;20.50;99.90
19920;DHT22;10122;50.074;19.920;2022-08-03T05:44:26;20.60;99.90
19920;DHT22;10122;50.074;19.920;2022-08-03T05:46:52;20.60;99.90
19920;DHT22;10122;50.074;19.920;2022-08-03T05:49:18;20.70;99.90
19920;DHT22;10122;50.074;19.920;2022-08-03T05:51:44;20.70;99.90
19920;DHT22;10122;50.074;19.920;2022-08-03T05:54:10;20.80;99.90
19920;DHT22;10122;50.074;19.920;2022-08-03T05:56:36;20.80;99.90
19920;DHT22;10122;50.074;19.920;2022-08-03T05:59:02;20.70;99.90
19920;DHT22;10122;50.074;19.920;2022-08-03T06:01:28;20.70;99.90
19920;DHT22;10122;50.074;19.920;2022-08-03T06:03:57;20.60;99.90
19920;DHT22;10122;50.074;19.920;2022-08-03T06:06:22;20.60;99.90
19920;DHT22;10122;50.074;19.920;2022-08-03T06:08:48;20.60;99.90
19920;DHT22;10122;50.074;19.920;2022-08-03T06:11:14;20.60;99.90
19920;DHT22;10122;50.074;19.920;2022-08-03T06:13:40;20.70;99.90
19920;DHT22;10122;50.074;19.920;2022-08-03T06:16:06;20.80;99.90
19920;DHT22;10122;50.074;19.920;2022-08-03T06:18:32;20.90;99.90
19920;DHT22;10122;50.074;19.920;2022-08-03T06:20:58;21.00;99.90
19920;DHT22;10122;50.074;19.920;2022-08-03T06:23:23;21.10;99.90
19920;DHT22;10122;50.074;19.920;2022-08-03T06:25:49;21.40;99.90
19920;DHT22;10122;50.074;19.920;2022-08-03T06:28:15;21.90;99.90
19920;DHT22;10122;50.074;19.920;2022-08-03T06:30:43;22.40;99.90
19920;DHT22;10122;50.074;19.920;2022-08-03T06:33:08;22.90;99.90
19920;DHT22;10122;50.074;19.920;2022-08-03T06:35:34;23.40;99.90
19920;DHT22;10122;50.074;19.920;2022-08-03T06:38:00;23.80;99.90
19920;DHT22;10122;50.074;19.920;2022-08-03T06:40:26;24.30;99.90
19920;DHT22;10122;50.074;19.920;2022-08-03T06:43:02;24.70;99.90
19920;DHT22;10122;50.074;19.920;2022-08-03T06:45:28;25.10;99.90
19920;DHT22;10122;50.074;19.920;2022-08-03T06:50:26;25.80;99.90
19920;DHT22;10122;50.074;19.920;2022-08-03T06:52:52;26.10;99.90
19920;DHT22;10122;50.074;19.920;2022-08-03T06:55:17;26.40;99.90
19920;DHT22;10122;50.074;19.920;2022-08-03T06:57:43;26.60;99.90
19920;DHT22;10122;50.074;19.920;2022-08-03T07:00:09;26.40;99.90
19920;DHT22;10122;50.074;19.920;2022-08-03T07:02:37;26.00;99.90
19920;DHT22;10122;50.074;19.920;2022-08-03T07:05:03;25.80;99.90
19920;DHT22;10122;50.074;19.920;2022-08-03T07:07:28;25.50;99.90
19920;DHT22;10122;50.074;19.920;2022-08-03T07:09:54;25.30;99.90
19920;DHT22;10122;50.074;19.920;2022-08-03T07:12:20;25.20;99.90
19920;DHT22;10122;50.074;19.920;2022-08-03T07:14:45;25.30;99.90
19920;DHT22;10122;50.074;19.920;2022-08-03T07:17:11;25.60;99.90
19920;DHT22;10122;50.074;19.920;2022-08-03T07:19:37;26.00;99.90
19920;DHT22;10122;50.074;19.920;2022-08-03T07:22:02;26.30;99.90
19920;DHT22;10122;50.074;19.920;2022-08-03T07:24:28;26.50;99.90
19920;DHT22;10122;50.074;19.920;2022-08-03T07:26:54;26.70;99.90
19920;DHT22;10122;50.074;19.920;2022-08-03T07:29:20;27.00;99.90
19920;DHT22;10122;50.074;19.920;2022-08-03T07:31:45;27.10;99.90
19920;DHT22;10122;50.074;19.920;2022-08-03T07:34:11;27.30;99.90
19920;DHT22;10122;50.074;19.920;2022-08-03T07:36:37;27.50;99.90
19920;DHT22;10122;50.074;19.920;2022-08-03T07:39:03;27.60;99.90
19920;DHT22;10122;50.074;19.920;2022-08-03T07:41:28;27.90;99.90
19920;DHT22;10122;50.074;19.920;2022-08-03T07:43:54;28.10;99.90
19920;DHT22;10122;50.074;19.920;2022-08-03T07:46:20;28.30;99.90
19920;DHT22;10122;50.074;19.920;2022-08-03T07:48:46;28.60;99.90
19920;DHT22;10122;50.074;19.920;2022-08-03T07:51:11;28.80;99.90
19920;DHT22;10122;50.074;19.920;2022-08-03T07:53:37;29.00;99.90
19920;DHT22;10122;50.074;19.920;2022-08-03T07:56:03;29.10;99.90
19920;DHT22;10122;50.074;19.920;2022-08-03T07:58:28;29.40;99.90
19920;DHT22;10122;50.074;19.920;2022-08-03T08:00:54;29.60;99.90
19920;DHT22;10122;50.074;19.920;2022-08-03T08:03:20;29.80;99.90
19920;DHT22;10122;50.074;19.920;2022-08-03T08:05:48;30.00;99.90
19920;DHT22;10122;50.074;19.920;2022-08-03T08:08:14;30.30;99.90
19920;DHT22;10122;50.074;19.920;2022-08-03T08:10:40;30.40;99.90
19920;DHT22;10122;50.074;19.920;2022-08-03T08:13:05;30.50;99.90
19920;DHT22;10122;50.074;19.920;2022-08-03T08:15:31;30.60;99.90
19920;DHT22;10122;50.074;19.920;2022-08-03T08:17:58;30.40;99.90
19920;DHT22;10122;50.074;19.920;2022-08-03T08:20:27;29.90;99.90
19920;DHT22;10122;50.074;19.920;2022-08-03T08:22:58;29.60;99.90
19920;DHT22;10122;50.074;19.920;2022-08-03T08:25:24;29.60;99.90
19920;DHT22;10122;50.074;19.920;2022-08-03T08:27:50;29.70;99.90
19920;DHT22;10122;50.074;19.920;2022-08-03T08:30:18;29.90;99.90
19920;DHT22;10122;50.074;19.920;2022-08-03T08:32:44;30.00;99.90
19920;DHT22;10122;50.074;19.920;2022-08-03T08:35:10;29.90;99.90
19920;DHT22;10122;50.074;19.920;2022-08-03T08:37:37;29.90;99.90
19920;DHT22;10122;50.074;19.920;2022-08-03T08:40:04;29.90;99.90
19920;DHT22;10122;50.074;19.920;2022-08-03T08:42:31;29.90;99.90
19920;DHT22;10122;50.074;19.920;2022-08-03T08:44:58;29.80;99.90
19920;DHT22;10122;50.074;19.920;2022-08-03T08:47:25;29.60;99.90
19920;DHT22;10122;50.074;19.920;2022-08-03T08:49:54;29.20;99.90
19920;DHT22;10122;50.074;19.920;2022-08-03T08:52:24;29.00;99.90
19920;DHT22;10122;50.074;19.920;2022-08-03T08:54:55;28.90;99.90
19920;DHT22;10122;50.074;19.920;2022-08-03T08:57:23;29.10;99.90
19920;DHT22;10122;50.074;19.920;2022-08-03T08:59:51;29.30;99.90
19920;DHT22;10122;50.074;19.920;2022-08-03T09:02:19;29.70;99.90
19920;DHT22;10122;50.074;19.920;2022-08-03T09:04:45;30.00;99.90
19920;DHT22;10122;50.074;19.920;2022-08-03T09:07:13;30.30;99.90
19920;DHT22;10122;50.074;19.920;2022-08-03T09:09:38;30.60;99.90
19920;DHT22;10122;50.074;19.920;2022-08-03T09:12:04;30.80;99.20
19920;DHT22;10122;50.074;19.920;2022-08-03T09:14:30;30.80;97.80
19920;DHT22;10122;50.074;19.920;2022-08-03T09:17:00;31.00;98.80
19920;DHT22;10122;50.074;19.920;2022-08-03T09:19:27;31.00;97.90
19920;DHT22;10122;50.074;19.920;2022-08-03T09:22:14;31.10;97.60
19920;DHT22;10122;50.074;19.920;2022-08-03T09:25:01;31.30;96.20
19920;DHT22;10122;50.074;19.920;2022-08-03T09:27:28;31.50;95.10
19920;DHT22;10122;50.074;19.920;2022-08-03T09:29:54;31.70;93.80
19920;DHT22;10122;50.074;19.920;2022-08-03T09:32:23;31.80;91.30
19920;DHT22;10122;50.074;19.920;2022-08-03T09:34:51;31.60;93.10
19920;DHT22;10122;50.074;19.920;2022-08-03T09:37:18;31.50;90.80
19920;DHT22;10122;50.074;19.920;2022-08-03T09:39:46;31.60;91.50
19920;DHT22;10122;50.074;19.920;2022-08-03T09:42:14;31.60;91.30
19920;DHT22;10122;50.074;19.920;2022-08-03T09:44:43;31.60;82.00
19920;DHT22;10122;50.074;19.920;2022-08-03T09:47:11;31.50;82.90
19920;DHT22;10122;50.074;19.920;2022-08-03T09:49:41;31.60;81.10
19920;DHT22;10122;50.074;19.920;2022-08-03T09:52:18;31.60;84.70
19920;DHT22;10122;50.074;19.920;2022-08-03T09:54:52;31.50;87.50
19920;DHT22;10122;50.074;19.920;2022-08-03T09:57:25;31.40;88.60
19920;DHT22;10122;50.074;19.920;2022-08-03T09:59:53;31.50;88.40
19920;DHT22;10122;50.074;19.920;2022-08-03T10:02:23;31.60;87.90
19920;DHT22;10122;50.074;19.920;2022-08-03T10:04:49;31.60;81.50
19920;DHT22;10122;50.074;19.920;2022-08-03T10:07:23;31.70;77.70
19920;DHT22;10122;50.074;19.920;2022-08-03T10:10:00;31.70;79.20
19920;DHT22;10122;50.074;19.920;2022-08-03T10:12:26;31.70;74.10
19920;DHT22;10122;50.074;19.920;2022-08-03T10:14:53;31.80;77.30
19920;DHT22;10122;50.074;19.920;2022-08-03T10:17:20;31.90;75.50
19920;DHT22;10122;50.074;19.920;2022-08-03T10:19:47;32.10;75.60
19920;DHT22;10122;50.074;19.920;2022-08-03T10:22:20;32.10;78.70
19920;DHT22;10122;50.074;19.920;2022-08-03T10:24:59;32.00;80.90
19920;DHT22;10122;50.074;19.920;2022-08-03T10:27:29;32.00;76.70
19920;DHT22;10122;50.074;19.920;2022-08-03T10:29:59;32.00;70.90
19920;DHT22;10122;50.074;19.920;2022-08-03T10:32:39;31.70;67.10
19920;DHT22;10122;50.074;19.920;2022-08-03T10:37:39;31.10;81.80
19920;DHT22;10122;50.074;19.920;2022-08-03T10:40:07;31.20;84.00
19920;DHT22;10122;50.074;19.920;2022-08-03T10:45:28;31.50;80.10
19920;DHT22;10122;50.074;19.920;2022-08-03T10:47:56;31.50;75.00
19920;DHT22;10122;50.074;19.920;2022-08-03T10:50:23;31.10;70.50
19920;DHT22;10122;50.074;19.920;2022-08-03T10:53:01;31.00;79.80
19920;DHT22;10122;50.074;19.920;2022-08-03T10:55:37;31.10;75.70
19920;DHT22;10122;50.074;19.920;2022-08-03T10:58:45;31.20;78.50
19920;DHT22;10122;50.074;19.920;2022-08-03T11:01:11;31.20;71.30
19920;DHT22;10122;50.074;19.920;2022-08-03T11:06:23;31.30;77.40
19920;DHT22;10122;50.074;19.920;2022-08-03T11:11:35;31.30;77.90
19920;DHT22;10122;50.074;19.920;2022-08-03T11:16:31;30.80;75.20
19920;DHT22;10122;50.074;19.920;2022-08-03T11:19:02;30.70;74.90
19920;DHT22;10122;50.074;19.920;2022-08-03T11:29:58;31.00;77.00
19920;DHT22;10122;50.074;19.920;2022-08-03T11:37:32;31.30;77.00
19920;DHT22;10122;50.074;19.920;2022-08-03T11:39:58;31.30;77.30
19920;DHT22;10122;50.074;19.920;2022-08-03T11:44:52;31.10;77.60
19920;DHT22;10122;50.074;19.920;2022-08-03T11:47:20;30.90;72.20
19920;DHT22;10122;50.074;19.920;2022-08-03T11:49:46;30.80;70.20
19920;DHT22;10122;50.074;19.920;2022-08-03T11:52:13;30.80;73.40
19920;DHT22;10122;50.074;19.920;2022-08-03T11:54:39;30.80;74.80
19920;DHT22;10122;50.074;19.920;2022-08-03T11:57:05;30.90;75.80
19920;DHT22;10122;50.074;19.920;2022-08-03T11:59:35;30.90;73.00
19920;DHT22;10122;50.074;19.920;2022-08-03T12:02:07;30.80;68.50
19920;DHT22;10122;50.074;19.920;2022-08-03T12:07:19;30.50;74.10
19920;DHT22;10122;50.074;19.920;2022-08-03T12:10:07;30.20;75.80
19920;DHT22;10122;50.074;19.920;2022-08-03T12:12:34;30.10;81.10
19920;DHT22;10122;50.074;19.920;2022-08-03T12:15:00;30.20;82.90
19920;DHT22;10122;50.074;19.920;2022-08-03T12:17:39;30.40;86.80
19920;DHT22;10122;50.074;19.920;2022-08-03T12:20:08;30.40;79.20
19920;DHT22;10122;50.074;19.920;2022-08-03T12:22:35;30.50;87.00
19920;DHT22;10122;50.074;19.920;2022-08-03T12:25:03;30.60;86.40
19920;DHT22;10122;50.074;19.920;2022-08-03T12:27:29;30.70;90.60
19920;DHT22;10122;50.074;19.920;2022-08-03T12:29:56;30.80;95.80
19920;DHT22;10122;50.074;19.920;2022-08-03T12:32:22;30.90;85.90
19920;DHT22;10122;50.074;19.920;2022-08-03T12:34:50;31.00;91.20
19920;DHT22;10122;50.074;19.920;2022-08-03T12:37:20;30.90;77.70
19920;DHT22;10122;50.074;19.920;2022-08-03T12:39:54;30.90;91.00
19920;DHT22;10122;50.074;19.920;2022-08-03T12:42:20;31.00;81.60
19920;DHT22;10122;50.074;19.920;2022-08-03T12:44:47;31.00;87.10
19920;DHT22;10122;50.074;19.920;2022-08-03T12:47:15;31.00;94.50
19920;DHT22;10122;50.074;19.920;2022-08-03T12:49:45;31.00;86.30
19920;DHT22;10122;50.074;19.920;2022-08-03T12:52:11;30.90;77.10
19920;DHT22;10122;50.074;19.920;2022-08-03T12:54:37;30.90;73.50
19920;DHT22;10122;50.074;19.920;2022-08-03T12:57:10;31.00;82.60
19920;DHT22;10122;50.074;19.920;2022-08-03T12:59:38;30.90;83.90
19920;DHT22;10122;50.074;19.920;2022-08-03T13:02:13;30.60;79.20
19920;DHT22;10122;50.074;19.920;2022-08-03T13:04:40;30.50;81.20
19920;DHT22;10122;50.074;19.920;2022-08-03T13:07:08;30.50;96.60
19920;DHT22;10122;50.074;19.920;2022-08-03T13:09:47;30.30;94.50
19920;DHT22;10122;50.074;19.920;2022-08-03T13:12:15;30.20;71.60
19920;DHT22;10122;50.074;19.920;2022-08-03T13:14:42;30.20;94.70
19920;DHT22;10122;50.074;19.920;2022-08-03T13:17:08;30.20;80.00
19920;DHT22;10122;50.074;19.920;2022-08-03T13:19:35;30.00;69.60
19920;DHT22;10122;50.074;19.920;2022-08-03T13:22:22;30.10;75.90
19920;DHT22;10122;50.074;19.920;2022-08-03T13:24:50;30.30;89.20
19920;DHT22;10122;50.074;19.920;2022-08-03T13:27:16;30.20;81.00
19920;DHT22;10122;50.074;19.920;2022-08-03T13:29:42;30.30;79.20
19920;DHT22;10122;50.074;19.920;2022-08-03T13:32:08;30.40;90.60
19920;DHT22;10122;50.074;19.920;2022-08-03T13:34:35;30.50;78.70
19920;DHT22;10122;50.074;19.920;2022-08-03T13:37:00;30.70;79.90
19920;DHT22;10122;50.074;19.920;2022-08-03T13:39:26;30.80;85.10
19920;DHT22;10122;50.074;19.920;2022-08-03T13:41:52;30.60;72.70
19920;DHT22;10122;50.074;19.920;2022-08-03T13:44:18;30.60;70.80
19920;DHT22;10122;50.074;19.920;2022-08-03T13:46:45;30.80;88.60
19920;DHT22;10122;50.074;19.920;2022-08-03T13:49:11;30.80;92.00
19920;DHT22;10122;50.074;19.920;2022-08-03T13:51:37;30.80;91.90
19920;DHT22;10122;50.074;19.920;2022-08-03T13:54:03;30.90;90.20
19920;DHT22;10122;50.074;19.920;2022-08-03T13:56:29;30.90;76.10
19920;DHT22;10122;50.074;19.920;2022-08-03T13:58:56;30.80;74.30
19920;DHT22;10122;50.074;19.920;2022-08-03T14:01:22;30.90;87.20
19920;DHT22;10122;50.074;19.920;2022-08-03T14:03:48;31.00;85.10
19920;DHT22;10122;50.074;19.920;2022-08-03T14:06:17;31.00;80.10
19920;DHT22;10122;50.074;19.920;2022-08-03T14:08:43;31.10;78.10
19920;DHT22;10122;50.074;19.920;2022-08-03T14:11:10;31.00;66.70
19920;DHT22;10122;50.074;19.920;2022-08-03T14:13:36;31.00;81.10
19920;DHT22;10122;50.074;19.920;2022-08-03T14:16:02;31.00;68.10
19920;DHT22;10122;50.074;19.920;2022-08-03T14:18:28;31.10;82.20
19920;DHT22;10122;50.074;19.920;2022-08-03T14:20:54;31.10;77.20
19920;DHT22;10122;50.074;19.920;2022-08-03T14:23:20;31.20;70.90
19920;DHT22;10122;50.074;19.920;2022-08-03T14:25:45;31.30;79.50
19920;DHT22;10122;50.074;19.920;2022-08-03T14:28:11;31.30;81.30
19920;DHT22;10122;50.074;19.920;2022-08-03T14:30:37;31.20;82.70
19920;DHT22;10122;50.074;19.920;2022-08-03T14:33:02;31.00;80.70
19920;DHT22;10122;50.074;19.920;2022-08-03T14:35:28;30.90;72.80
19920;DHT22;10122;50.074;19.920;2022-08-03T14:37:54;30.80;65.80
19920;DHT22;10122;50.074;19.920;2022-08-03T14:40:20;30.80;76.90
19920;DHT22;10122;50.074;19.920;2022-08-03T14:42:46;30.90;75.60
19920;DHT22;10122;50.074;19.920;2022-08-03T14:45:11;30.90;72.30
19920;DHT22;10122;50.074;19.920;2022-08-03T14:47:38;30.90;76.90
19920;DHT22;10122;50.074;19.920;2022-08-03T14:50:04;30.90;76.00
19920;DHT22;10122;50.074;19.920;2022-08-03T14:52:30;31.00;70.30
19920;DHT22;10122;50.074;19.920;2022-08-03T14:54:57;31.00;75.70
19920;DHT22;10122;50.074;19.920;2022-08-03T14:57:22;31.10;79.40
19920;DHT22;10122;50.074;19.920;2022-08-03T14:59:48;31.10;70.90
19920;DHT22;10122;50.074;19.920;2022-08-03T15:02:14;31.10;69.80
19920;DHT22;10122;50.074;19.920;2022-08-03T15:04:40;31.10;72.20
19920;DHT22;10122;50.074;19.920;2022-08-03T15:07:05;31.10;67.50
19920;DHT22;10122;50.074;19.920;2022-08-03T15:09:31;31.10;74.20
19920;DHT22;10122;50.074;19.920;2022-08-03T15:11:57;31.10;69.40
19920;DHT22;10122;50.074;19.920;2022-08-03T15:14:23;30.80;67.00
19920;DHT22;10122;50.074;19.920;2022-08-03T15:16:49;30.60;64.40
19920;DHT22;10122;50.074;19.920;2022-08-03T15:19:14;30.50;69.30
19920;DHT22;10122;50.074;19.920;2022-08-03T15:21:40;30.50;71.40
19920;DHT22;10122;50.074;19.920;2022-08-03T15:24:06;30.40;68.40
19920;DHT22;10122;50.074;19.920;2022-08-03T15:26:31;30.20;65.90
19920;DHT22;10122;50.074;19.920;2022-08-03T15:28:57;30.10;67.60
19920;DHT22;10122;50.074;19.920;2022-08-03T15:31:23;30.10;66.20
19920;DHT22;10122;50.074;19.920;2022-08-03T15:33:50;29.90;65.10
19920;DHT22;10122;50.074;19.920;2022-08-03T15:36:17;29.80;67.20
19920;DHT22;10122;50.074;19.920;2022-08-03T15:38:44;29.80;68.80
19920;DHT22;10122;50.074;19.920;2022-08-03T15:41:11;29.70;75.80
19920;DHT22;10122;50.074;19.920;2022-08-03T15:43:37;29.90;76.50
19920;DHT22;10122;50.074;19.920;2022-08-03T15:46:02;29.70;68.70
19920;DHT22;10122;50.074;19.920;2022-08-03T15:48:28;29.80;69.60
19920;DHT22;10122;50.074;19.920;2022-08-03T15:50:54;29.80;68.90
19920;DHT22;10122;50.074;19.920;2022-08-03T15:53:20;29.80;69.00
19920;DHT22;10122;50.074;19.920;2022-08-03T15:55:45;29.60;68.60
19920;DHT22;10122;50.074;19.920;2022-08-03T15:58:11;29.60;76.80
19920;DHT22;10122;50.074;19.920;2022-08-03T16:00:38;29.70;70.50
19920;DHT22;10122;50.074;19.920;2022-08-03T16:03:04;29.70;68.30
19920;DHT22;10122;50.074;19.920;2022-08-03T16:05:30;29.60;71.00
19920;DHT22;10122;50.074;19.920;2022-08-03T16:07:55;29.60;70.00